createdAt,value
2017-12-25T00:00:41.856Z,7.90
2017-12-25T00:03:10.705Z,7.90
2017-12-25T00:05:39.039Z,7.90
2017-12-25T00:08:12.828Z,7.90
2017-12-25T00:10:40.975Z,7.80
2017-12-25T00:13:09.224Z,7.80
2017-12-25T00:15:37.336Z,7.80
2017-12-25T00:18:05.515Z,7.80
2017-12-25T00:20:33.896Z,7.80
2017-12-25T00:23:02.068Z,7.80
2017-12-25T00:25:30.947Z,7.80
2017-12-25T00:28:00.143Z,7.80
2017-12-25T00:30:28.296Z,7.80
2017-12-25T00:32:56.424Z,7.80
2017-12-25T00:35:25.264Z,7.80
2017-12-25T00:37:53.385Z,7.80
2017-12-25T00:40:21.590Z,7.80
2017-12-25T00:42:49.727Z,7.70
2017-12-25T00:45:17.925Z,7.70
2017-12-25T00:47:46.035Z,7.70
2017-12-25T00:50:14.267Z,7.60
2017-12-25T00:52:42.492Z,7.50
2017-12-25T00:55:10.595Z,7.50
2017-12-25T00:57:38.715Z,7.50
2017-12-25T01:00:07.796Z,7.50
2017-12-25T01:02:36.951Z,7.40
2017-12-25T01:05:05.133Z,7.40
2017-12-25T01:07:33.463Z,7.40
2017-12-25T01:10:01.599Z,7.40
2017-12-25T01:12:29.786Z,7.40
2017-12-25T01:14:57.936Z,7.40
2017-12-25T01:17:27.815Z,7.30
2017-12-25T01:19:56.056Z,7.30
2017-12-25T01:22:24.182Z,7.30
2017-12-25T01:24:52.289Z,7.30
2017-12-25T01:27:21.224Z,7.30
2017-12-25T01:29:51.416Z,7.30
2017-12-25T01:32:19.594Z,7.30
2017-12-25T01:34:47.663Z,7.30
2017-12-25T01:37:15.767Z,7.30
2017-12-25T01:39:45.975Z,7.30
2017-12-25T01:42:14.124Z,7.30
2017-12-25T01:44:42.264Z,7.40
2017-12-25T01:47:10.438Z,7.40
2017-12-25T01:49:39.068Z,7.40
2017-12-25T01:52:08.974Z,7.40
2017-12-25T01:54:38.970Z,7.40
2017-12-25T01:57:17.585Z,7.30
2017-12-25T02:02:52.664Z,7.30
2017-12-25T02:08:33.952Z,7.30
2017-12-25T02:11:02.810Z,7.30
2017-12-25T02:13:30.972Z,7.30
2017-12-25T02:15:59.213Z,7.20
2017-12-25T02:18:27.415Z,7.20
2017-12-25T02:20:55.671Z,7.20
2017-12-25T02:23:23.978Z,7.20
2017-12-25T02:25:52.216Z,7.20
2017-12-25T02:28:20.372Z,7.20
2017-12-25T02:30:48.604Z,7.20
2017-12-25T02:33:17.411Z,7.20
2017-12-25T02:35:50.761Z,7.20
2017-12-25T02:38:22.547Z,7.20
2017-12-25T02:41:01.195Z,7.20
2017-12-25T02:43:30.129Z,7.20
2017-12-25T02:45:58.420Z,7.20
2017-12-25T02:48:28.601Z,7.30
2017-12-25T02:50:57.712Z,7.30
2017-12-25T02:53:27.042Z,7.30
2017-12-25T02:55:55.274Z,7.30
2017-12-25T02:58:23.559Z,7.30
2017-12-25T03:00:51.687Z,7.30
2017-12-25T03:03:23.626Z,7.30
2017-12-25T03:05:51.759Z,7.40
2017-12-25T03:08:19.864Z,7.30
2017-12-25T03:10:48.319Z,7.30
2017-12-25T03:13:16.444Z,7.40
2017-12-25T03:15:44.939Z,7.40
2017-12-25T03:18:13.035Z,7.40
2017-12-25T03:20:41.230Z,7.40
2017-12-25T03:23:09.542Z,7.40
2017-12-25T03:25:38.735Z,7.40
2017-12-25T03:28:06.823Z,7.40
2017-12-25T03:30:35.056Z,7.40
2017-12-25T03:33:03.200Z,7.30
2017-12-25T03:35:32.147Z,7.40
2017-12-25T03:38:00.246Z,7.40
2017-12-25T03:40:29.396Z,7.40
2017-12-25T03:42:57.519Z,7.40
2017-12-25T03:45:25.726Z,7.40
2017-12-25T03:47:53.866Z,7.40
2017-12-25T03:50:23.043Z,7.40
2017-12-25T03:52:53.451Z,7.40
2017-12-25T03:55:21.599Z,7.40
2017-12-25T03:57:49.726Z,7.40
2017-12-25T04:00:17.938Z,7.40
2017-12-25T04:02:47.147Z,7.40
2017-12-25T04:05:16.384Z,7.40
2017-12-25T04:07:44.640Z,7.40
2017-12-25T04:10:12.879Z,7.50
2017-12-25T04:12:42.287Z,7.50
2017-12-25T04:15:12.280Z,7.40
2017-12-25T04:17:40.519Z,7.50
2017-12-25T04:20:08.606Z,7.50
2017-12-25T04:22:36.825Z,7.40
2017-12-25T04:25:04.972Z,7.50
2017-12-25T04:27:33.083Z,7.50
2017-12-25T04:30:04.673Z,7.50
2017-12-25T04:32:32.850Z,7.50
2017-12-25T04:35:01.091Z,7.50
2017-12-25T04:37:29.282Z,7.50
2017-12-25T04:39:58.355Z,7.50
2017-12-25T04:42:26.681Z,7.50
2017-12-25T04:44:54.768Z,7.50
2017-12-25T04:47:25.963Z,7.50
2017-12-25T04:49:54.124Z,7.60
2017-12-25T04:52:22.266Z,7.60
2017-12-25T04:54:50.488Z,7.60
2017-12-25T04:57:19.535Z,7.60
2017-12-25T04:59:47.713Z,7.50
2017-12-25T05:02:15.932Z,7.60
2017-12-25T05:04:44.091Z,7.50
2017-12-25T05:07:12.256Z,7.50
2017-12-25T05:09:40.439Z,7.40
2017-12-25T05:12:09.626Z,7.40
2017-12-25T05:14:38.758Z,7.40
2017-12-25T05:17:06.964Z,7.40
2017-12-25T05:19:35.144Z,7.40
2017-12-25T05:22:03.383Z,7.40
2017-12-25T05:24:35.923Z,7.40
2017-12-25T05:27:04.153Z,7.50
2017-12-25T05:29:32.387Z,7.40
2017-12-25T05:32:00.826Z,7.40
2017-12-25T05:34:29.182Z,7.40
2017-12-25T05:36:57.267Z,7.40
2017-12-25T05:39:25.427Z,7.40
2017-12-25T05:41:53.822Z,7.50
2017-12-25T05:44:21.927Z,7.40
2017-12-25T05:46:50.996Z,7.40
2017-12-25T05:49:19.132Z,7.40
2017-12-25T05:51:48.071Z,7.50
2017-12-25T05:54:16.230Z,7.40
2017-12-25T05:56:44.423Z,7.50
2017-12-25T05:59:13.546Z,7.50
2017-12-25T06:01:41.790Z,7.50
2017-12-25T06:04:10.064Z,7.50
2017-12-25T06:06:42.008Z,7.50
2017-12-25T06:09:14.634Z,7.50
2017-12-25T06:11:43.561Z,7.50
2017-12-25T06:14:13.683Z,7.50
2017-12-25T06:16:41.942Z,7.50
2017-12-25T06:19:13.719Z,7.50
2017-12-25T06:21:42.775Z,7.60
2017-12-25T06:24:11.635Z,7.60
2017-12-25T06:26:39.745Z,7.60
2017-12-25T06:29:07.956Z,7.50
2017-12-25T06:31:36.147Z,7.60
2017-12-25T06:34:04.282Z,7.60
2017-12-25T06:36:32.439Z,7.60
2017-12-25T06:39:00.570Z,7.60
2017-12-25T06:41:28.815Z,7.60
2017-12-25T06:43:57.944Z,7.60
2017-12-25T06:46:26.239Z,7.60
2017-12-25T06:48:54.466Z,7.60
2017-12-25T06:51:22.544Z,7.60
2017-12-25T06:53:50.703Z,7.60
2017-12-25T06:56:19.799Z,7.60
2017-12-25T06:58:47.915Z,7.60
2017-12-25T07:01:16.128Z,7.60
2017-12-25T07:04:00.784Z,7.60
2017-12-25T07:06:29.732Z,7.60
2017-12-25T07:08:57.903Z,7.60
2017-12-25T07:11:25.988Z,7.60
2017-12-25T07:13:54.287Z,7.50
2017-12-25T07:16:23.244Z,7.50
2017-12-25T07:18:51.644Z,7.50
2017-12-25T07:21:19.723Z,7.50
2017-12-25T07:23:50.869Z,7.50
2017-12-25T07:26:19.047Z,7.50
2017-12-25T07:28:48.428Z,7.60
2017-12-25T07:31:17.704Z,7.50
2017-12-25T07:33:46.827Z,7.50
2017-12-25T07:36:15.028Z,7.50
2017-12-25T07:38:43.192Z,7.50
2017-12-25T07:41:16.698Z,7.50
2017-12-25T07:43:44.926Z,7.50
2017-12-25T07:46:13.123Z,7.60
2017-12-25T07:48:41.419Z,7.50
2017-12-25T07:51:12.361Z,7.50
2017-12-25T07:53:40.591Z,7.50
2017-12-25T07:56:08.679Z,7.50
2017-12-25T07:58:36.938Z,7.50
2017-12-25T08:01:05.264Z,7.50
2017-12-25T08:03:33.504Z,7.60
2017-12-25T08:06:01.749Z,7.50
2017-12-25T08:08:29.948Z,7.50
2017-12-25T08:10:58.136Z,7.50
2017-12-25T08:13:26.231Z,7.60
2017-12-25T08:15:54.407Z,7.60
2017-12-25T08:18:23.304Z,7.60
2017-12-25T08:20:52.195Z,7.60
2017-12-25T08:23:20.387Z,7.60
2017-12-25T08:25:48.656Z,7.60
2017-12-25T08:28:16.797Z,7.60
2017-12-25T08:30:44.949Z,7.60
2017-12-25T08:33:13.158Z,7.50
2017-12-25T08:35:41.327Z,7.50
2017-12-25T08:38:10.504Z,7.50
2017-12-25T08:40:38.611Z,7.50
2017-12-25T08:43:07.690Z,7.60
2017-12-25T08:45:36.681Z,7.50
2017-12-25T08:48:04.794Z,7.60
2017-12-25T08:50:32.878Z,7.50
2017-12-25T08:53:01.000Z,7.50
2017-12-25T08:55:30.084Z,7.50
2017-12-25T08:57:58.251Z,7.50
2017-12-25T09:00:27.482Z,7.50
2017-12-25T09:02:55.652Z,7.50
2017-12-25T09:05:24.579Z,7.50
2017-12-25T09:07:53.771Z,7.50
2017-12-25T09:10:23.937Z,7.50
2017-12-25T09:12:52.284Z,7.50
2017-12-25T09:15:20.611Z,7.50
2017-12-25T09:17:48.799Z,7.50
2017-12-25T09:20:16.989Z,7.50
2017-12-25T09:22:45.243Z,7.50
2017-12-25T09:25:14.644Z,7.50
2017-12-25T09:27:42.744Z,7.50
2017-12-25T09:30:10.867Z,7.50
2017-12-25T09:32:38.986Z,7.50
2017-12-25T09:35:07.214Z,7.50
2017-12-25T09:37:35.427Z,7.50
2017-12-25T09:40:04.568Z,7.50
2017-12-25T09:42:32.809Z,7.40
2017-12-25T09:45:00.921Z,7.40
2017-12-25T09:47:29.200Z,7.40
2017-12-25T09:50:00.579Z,7.40
2017-12-25T09:52:29.707Z,7.50
2017-12-25T09:54:57.788Z,7.50
2017-12-25T09:57:25.859Z,7.40
2017-12-25T09:59:54.022Z,7.40
2017-12-25T10:02:22.234Z,7.40
2017-12-25T10:04:50.426Z,7.40
2017-12-25T10:07:18.764Z,7.40
2017-12-25T10:09:52.649Z,7.40
2017-12-25T10:12:21.560Z,7.40
2017-12-25T10:14:49.681Z,7.40
2017-12-25T10:17:18.632Z,7.40
2017-12-25T10:19:48.811Z,7.50
2017-12-25T10:22:20.472Z,7.50
2017-12-25T10:24:48.628Z,7.50
2017-12-25T10:27:16.961Z,7.40
2017-12-25T10:29:45.086Z,7.40
2017-12-25T10:32:13.147Z,7.40
2017-12-25T10:34:41.440Z,7.40
2017-12-25T10:37:10.281Z,7.40
2017-12-25T10:39:38.631Z,7.40
2017-12-25T10:42:06.719Z,7.40
2017-12-25T10:44:35.112Z,7.40
2017-12-25T10:47:03.223Z,7.40
2017-12-25T10:49:31.360Z,7.40
2017-12-25T10:51:59.440Z,7.40
2017-12-25T10:54:27.618Z,7.40
2017-12-25T10:56:55.715Z,7.40
2017-12-25T10:59:23.839Z,7.40
2017-12-25T11:01:51.972Z,7.40
2017-12-25T11:04:20.818Z,7.40
2017-12-25T11:06:48.933Z,7.40
2017-12-25T11:09:16.998Z,7.40
2017-12-25T11:11:45.220Z,7.40
2017-12-25T11:14:13.353Z,7.40
2017-12-25T11:16:41.549Z,7.40
2017-12-25T11:19:09.659Z,7.40
2017-12-25T11:21:38.532Z,7.40
2017-12-25T11:24:07.625Z,7.40
2017-12-25T11:26:35.881Z,7.40
2017-12-25T11:29:03.971Z,7.40
2017-12-25T11:31:32.065Z,7.50
2017-12-25T11:34:00.949Z,7.50
2017-12-25T11:36:29.288Z,7.50
2017-12-25T11:38:58.175Z,7.40
2017-12-25T11:41:27.114Z,7.40
2017-12-25T11:43:55.222Z,7.40
2017-12-25T11:46:23.383Z,7.50
2017-12-25T11:48:51.447Z,7.60
2017-12-25T11:51:19.552Z,7.60
2017-12-25T11:53:48.772Z,7.70
2017-12-25T11:56:16.877Z,7.70
2017-12-25T11:58:45.007Z,7.70
2017-12-25T12:01:13.854Z,7.60
2017-12-25T12:03:42.035Z,7.60
2017-12-25T12:06:10.276Z,7.50
2017-12-25T12:08:38.355Z,7.60
2017-12-25T12:11:06.496Z,7.60
2017-12-25T12:13:34.628Z,7.60
2017-12-25T12:16:02.730Z,7.60
2017-12-25T12:18:31.651Z,7.70
2017-12-25T12:20:59.783Z,7.60
2017-12-25T12:23:28.647Z,7.60
2017-12-25T12:25:57.374Z,7.60
2017-12-25T12:28:26.240Z,7.50
2017-12-25T12:30:54.409Z,7.50
2017-12-25T12:33:25.542Z,7.50
2017-12-25T12:35:53.699Z,7.50
2017-12-25T12:38:21.867Z,7.50
2017-12-25T12:40:50.499Z,7.50
2017-12-25T12:43:18.654Z,7.60
2017-12-25T12:45:46.734Z,7.70
2017-12-25T12:48:14.898Z,7.70
2017-12-25T12:50:43.000Z,7.70
2017-12-25T12:53:11.157Z,7.70
2017-12-25T12:55:39.443Z,7.60
2017-12-25T12:58:07.504Z,7.60
2017-12-25T13:00:36.323Z,7.50
2017-12-25T13:03:04.436Z,7.50
2017-12-25T13:05:32.559Z,7.40
2017-12-25T13:08:01.560Z,7.40
2017-12-25T13:10:30.461Z,7.50
2017-12-25T13:12:58.780Z,7.50
2017-12-25T13:15:26.880Z,7.60
2017-12-25T13:17:54.968Z,7.50
2017-12-25T13:20:23.879Z,7.50
2017-12-25T13:22:52.010Z,7.50
2017-12-25T13:25:20.143Z,7.50
2017-12-25T13:27:48.285Z,7.50
2017-12-25T13:30:17.156Z,7.50
2017-12-25T13:32:46.243Z,7.50
2017-12-25T13:35:14.424Z,7.60
2017-12-25T13:37:43.312Z,7.50
2017-12-25T13:40:11.596Z,7.50
2017-12-25T13:42:39.736Z,7.50
2017-12-25T13:45:07.836Z,7.40
2017-12-25T13:47:35.919Z,7.40
2017-12-25T13:50:04.799Z,7.40
2017-12-25T13:52:33.099Z,7.40
2017-12-25T13:55:02.359Z,7.30
2017-12-25T13:57:30.699Z,7.30
2017-12-25T13:59:58.911Z,7.30
2017-12-25T14:02:27.326Z,7.30
2017-12-25T14:04:56.233Z,7.30
2017-12-25T14:07:25.469Z,7.30
2017-12-25T14:09:53.644Z,7.30
2017-12-25T14:12:21.772Z,7.20
2017-12-25T14:14:50.136Z,7.20
2017-12-25T14:17:19.847Z,7.20
2017-12-25T14:19:47.955Z,7.20
2017-12-25T14:22:16.126Z,7.20
2017-12-25T14:24:44.235Z,7.20
2017-12-25T14:27:12.425Z,7.20
2017-12-25T14:29:40.568Z,7.20
2017-12-25T14:32:08.648Z,7.10
2017-12-25T14:34:36.899Z,7.10
2017-12-25T14:37:05.351Z,7.10
2017-12-25T14:39:33.472Z,7.10
2017-12-25T14:42:01.552Z,7.10
2017-12-25T14:44:29.880Z,6.90
2017-12-25T14:46:58.184Z,6.80
2017-12-25T14:49:26.372Z,6.70
2017-12-25T14:51:54.471Z,6.60
2017-12-25T14:54:22.640Z,6.60
2017-12-25T14:56:50.896Z,6.60
2017-12-25T14:59:19.060Z,6.60
2017-12-25T15:01:47.160Z,6.60
2017-12-25T15:04:15.243Z,6.50
2017-12-25T15:06:43.322Z,6.50
2017-12-25T15:09:11.451Z,6.50
2017-12-25T15:11:39.594Z,6.50
2017-12-25T15:14:07.667Z,6.50
2017-12-25T15:16:35.785Z,6.40
2017-12-25T15:19:04.060Z,6.40
2017-12-25T15:21:32.160Z,6.30
2017-12-25T15:24:00.293Z,6.40
2017-12-25T15:26:28.414Z,6.30
2017-12-25T15:28:57.092Z,6.30
2017-12-25T15:31:25.201Z,6.30
2017-12-25T15:33:53.324Z,6.30
2017-12-25T15:36:21.478Z,6.40
2017-12-25T15:38:49.657Z,6.30
2017-12-25T15:41:18.551Z,6.30
2017-12-25T15:43:48.060Z,6.20
2017-12-25T15:46:16.210Z,6.20
2017-12-25T15:48:46.476Z,6.20
2017-12-25T15:51:14.612Z,6.10
2017-12-25T15:53:42.779Z,6.10
2017-12-25T15:56:11.139Z,6.10
2017-12-25T15:58:39.243Z,6.00
2017-12-25T16:01:07.702Z,6.10
2017-12-25T16:03:35.969Z,6.00
2017-12-25T16:06:04.071Z,6.00
2017-12-25T16:08:32.202Z,6.00
2017-12-25T16:11:00.664Z,5.90
2017-12-25T16:13:29.583Z,5.90
2017-12-25T16:15:57.701Z,5.90
2017-12-25T16:18:25.798Z,5.90
2017-12-25T16:20:54.819Z,5.80
2017-12-25T16:23:22.987Z,5.80
2017-12-25T16:25:51.860Z,5.80
2017-12-25T16:28:20.755Z,5.70
2017-12-25T16:30:49.920Z,5.80
2017-12-25T16:33:18.097Z,5.80
2017-12-25T16:35:46.251Z,5.80
2017-12-25T16:38:14.475Z,5.80
2017-12-25T16:40:43.391Z,5.80
2017-12-25T16:43:11.644Z,5.90
2017-12-25T16:45:41.038Z,5.90
2017-12-25T16:48:09.112Z,5.90
2017-12-25T16:50:37.196Z,5.90
2017-12-25T16:53:05.331Z,5.90
2017-12-25T16:55:33.889Z,5.90
2017-12-25T16:58:02.080Z,5.90
2017-12-25T17:00:32.127Z,5.80
2017-12-25T17:03:00.280Z,5.70
2017-12-25T17:05:28.379Z,5.60
2017-12-25T17:07:56.664Z,5.60
2017-12-25T17:10:25.568Z,5.60
2017-12-25T17:12:54.668Z,5.70
2017-12-25T17:15:23.237Z,5.70
2017-12-25T17:17:51.371Z,5.70
2017-12-25T17:20:19.463Z,5.70
2017-12-25T17:22:48.611Z,5.80
2017-12-25T17:25:16.783Z,5.80
2017-12-25T17:27:44.966Z,5.80
2017-12-25T17:30:13.120Z,5.90
2017-12-25T17:32:41.308Z,5.90
2017-12-25T17:35:09.462Z,5.90
2017-12-25T17:37:38.589Z,5.90
2017-12-25T17:40:06.673Z,5.90
2017-12-25T17:42:34.829Z,5.90
2017-12-25T17:45:03.924Z,5.80
2017-12-25T17:47:32.087Z,5.80
2017-12-25T17:50:00.288Z,5.80
2017-12-25T17:52:28.611Z,5.80
2017-12-25T17:54:57.244Z,5.90
2017-12-25T17:57:25.357Z,5.80
2017-12-25T17:59:53.555Z,5.80
2017-12-25T18:02:21.888Z,5.80
2017-12-25T18:04:50.096Z,5.80
2017-12-25T18:07:19.155Z,5.80
2017-12-25T18:09:47.321Z,5.80
2017-12-25T18:12:15.530Z,5.80
2017-12-25T18:14:44.441Z,5.80
2017-12-25T18:17:12.624Z,5.70
2017-12-25T18:19:40.771Z,5.70
2017-12-25T18:22:08.928Z,5.70
2017-12-25T18:24:37.027Z,5.70
2017-12-25T18:27:05.918Z,5.60
2017-12-25T18:29:34.864Z,5.60
2017-12-25T18:32:03.011Z,5.50
2017-12-25T18:34:31.669Z,5.50
2017-12-25T18:37:00.611Z,5.50
2017-12-25T18:39:28.915Z,5.50
2017-12-25T18:41:57.069Z,5.50
2017-12-25T18:44:25.968Z,5.50
2017-12-25T18:46:54.184Z,5.50
2017-12-25T18:49:23.316Z,5.50
2017-12-25T18:51:51.450Z,5.40
2017-12-25T18:54:19.949Z,5.40
2017-12-25T18:56:48.195Z,5.40
2017-12-25T18:59:17.312Z,5.40
2017-12-25T19:01:46.200Z,5.50
2017-12-25T19:04:15.996Z,5.40
2017-12-25T19:06:44.988Z,5.50
2017-12-25T19:09:13.181Z,5.40
2017-12-25T19:11:43.475Z,5.30
2017-12-25T19:14:12.651Z,5.30
2017-12-25T19:16:40.879Z,5.30
2017-12-25T19:19:09.447Z,5.30
2017-12-25T19:21:37.731Z,5.30
2017-12-25T19:24:06.652Z,5.40
2017-12-25T19:26:34.744Z,5.40
2017-12-25T19:29:02.932Z,5.40
2017-12-25T19:31:31.158Z,5.30
2017-12-25T19:33:59.285Z,5.30
2017-12-25T19:36:27.482Z,5.30
2017-12-25T19:38:55.597Z,5.30
2017-12-25T19:41:23.687Z,5.30
2017-12-25T19:43:51.864Z,5.30
2017-12-25T19:46:20.220Z,5.30
2017-12-25T19:48:48.479Z,5.30
2017-12-25T19:51:16.648Z,5.40
2017-12-25T19:53:45.588Z,5.30
2017-12-25T19:56:13.957Z,5.30
2017-12-25T19:58:42.174Z,5.20
2017-12-25T20:01:10.411Z,5.10
2017-12-25T20:03:38.571Z,5.10
2017-12-25T20:06:07.902Z,5.10
2017-12-25T20:08:37.077Z,5.00
2017-12-25T20:11:07.333Z,5.10
2017-12-25T20:13:35.815Z,5.00
2017-12-25T20:16:04.328Z,5.00
2017-12-25T20:18:32.679Z,5.00
2017-12-25T20:21:04.875Z,5.00
2017-12-25T20:23:33.275Z,4.90
2017-12-25T20:26:01.530Z,4.90
2017-12-25T20:28:30.441Z,4.90
2017-12-25T20:30:58.792Z,4.90
2017-12-25T20:33:26.969Z,4.90
2017-12-25T20:35:55.912Z,4.90
2017-12-25T20:38:24.093Z,4.90
2017-12-25T20:40:52.232Z,4.90
2017-12-25T20:43:21.555Z,4.90
2017-12-25T20:45:49.902Z,4.80
2017-12-25T20:48:18.040Z,4.80
2017-12-25T20:50:46.264Z,4.80
2017-12-25T20:53:14.727Z,4.80
2017-12-25T20:55:42.834Z,4.80
2017-12-25T20:58:10.994Z,4.70
2017-12-25T21:00:40.091Z,4.70
2017-12-25T21:03:08.477Z,4.80
2017-12-25T21:05:36.668Z,4.80
2017-12-25T21:08:04.899Z,4.80
2017-12-25T21:10:33.068Z,4.70
2017-12-25T21:13:01.185Z,4.70
2017-12-25T21:15:29.382Z,4.70
2017-12-25T21:17:57.674Z,4.70
2017-12-25T21:20:25.988Z,4.70
2017-12-25T21:22:54.572Z,4.60
2017-12-25T21:25:22.745Z,4.60
2017-12-25T21:27:50.871Z,4.60
2017-12-25T21:30:19.555Z,4.60
2017-12-25T21:32:47.666Z,4.70
2017-12-25T21:35:15.812Z,4.60
2017-12-25T21:37:44.811Z,4.60
2017-12-25T21:40:13.703Z,4.60
2017-12-25T21:42:42.587Z,4.60
2017-12-25T21:45:10.645Z,4.60
2017-12-25T21:47:38.805Z,4.70
2017-12-25T21:50:07.085Z,4.70
2017-12-25T21:52:35.197Z,4.60
2017-12-25T21:55:04.139Z,4.60
2017-12-25T21:57:32.274Z,4.60
2017-12-25T22:00:00.389Z,4.70
2017-12-25T22:02:28.499Z,4.60
2017-12-25T22:04:57.486Z,4.60
2017-12-25T22:07:26.351Z,4.60
2017-12-25T22:09:54.499Z,4.60
2017-12-25T22:12:22.633Z,4.60
2017-12-25T22:14:50.896Z,4.60
2017-12-25T22:17:18.978Z,4.50
2017-12-25T22:19:47.312Z,4.50
2017-12-25T22:22:15.399Z,4.50
2017-12-25T22:24:43.558Z,4.50
2017-12-25T22:27:12.678Z,4.50
2017-12-25T22:29:40.770Z,4.50
2017-12-25T22:32:09.663Z,4.50
2017-12-25T22:34:37.767Z,4.50
2017-12-25T22:37:05.851Z,4.50
2017-12-25T22:39:34.020Z,4.50
2017-12-25T22:42:02.092Z,4.50
2017-12-25T22:44:30.205Z,4.50
2017-12-25T22:46:58.301Z,4.40
2017-12-25T22:49:27.167Z,4.40
2017-12-25T22:51:55.291Z,4.40
2017-12-25T22:54:23.447Z,4.40
2017-12-25T22:56:51.634Z,4.30
2017-12-25T22:59:20.026Z,4.30
2017-12-25T23:01:48.166Z,4.20
2017-12-25T23:04:16.316Z,4.20
2017-12-25T23:06:45.067Z,4.20
2017-12-25T23:09:13.273Z,4.10
2017-12-25T23:11:41.393Z,4.10
2017-12-25T23:14:09.476Z,4.10
2017-12-25T23:16:37.559Z,4.10
2017-12-25T23:19:05.695Z,4.00
2017-12-25T23:21:34.469Z,3.90
2017-12-25T23:24:02.607Z,3.90
2017-12-25T23:26:30.711Z,3.90
2017-12-25T23:28:59.556Z,3.90
2017-12-25T23:31:27.915Z,3.80
2017-12-25T23:33:55.975Z,3.80
2017-12-25T23:36:24.113Z,3.80
2017-12-25T23:38:52.196Z,3.80
2017-12-25T23:41:20.350Z,3.80
2017-12-25T23:43:48.516Z,3.80
2017-12-25T23:46:16.612Z,3.70
2017-12-25T23:48:44.702Z,3.70
2017-12-25T23:51:12.827Z,3.70
2017-12-25T23:53:40.897Z,3.70
2017-12-25T23:56:09.062Z,3.60
2017-12-25T23:58:37.196Z,3.60
